Terminal Aerodrome Forecast
Issued by NWS

Home | Current Version | Previous Version | Text Only | Print | Product List | Glossary On
Versions: 1 2 3 4 5 6 7 8 9 10 11 12 13 14 15
000
FTUS46 KOTX 211738
TAFCOE
TAF
KCOE 211738Z 2118/2218 06003KT P6SM SCT250
     FM212100 VRB03KT P6SM SCT150 BKN200
     FM220300 04009KT P6SM BKN070 OVC100=

USA.gov is the U.S. government's official web portal to all federal, state and local government web resources and services.